sensor_id;sensor_type;location;lat;lon;timestamp;P1;durP1;ratioP1;P2;durP2;ratioP2
29006;SDS011;16104;48.642;9.008;2023-09-12T00:00:30;10.35;;;6.57;;
29006;SDS011;16104;48.642;9.008;2023-09-12T01:01:24;10.23;;;6.82;;
29006;SDS011;16104;48.642;9.008;2023-09-12T01:06:21;9.30;;;6.90;;
29006;SDS011;16104;48.642;9.008;2023-09-12T01:11:21;10.45;;;7.20;;
29006;SDS011;16104;48.642;9.008;2023-09-12T02:02:06;16.45;;;7.95;;
29006;SDS011;16104;48.642;9.008;2023-09-12T02:07:02;10.48;;;7.53;;
29006;SDS011;16104;48.642;9.008;2023-09-12T02:11:57;13.35;;;7.40;;
29006;SDS011;16104;48.642;9.008;2023-09-12T03:02:41;15.63;;;8.98;;
29006;SDS011;16104;48.642;9.008;2023-09-12T03:07:37;13.70;;;8.75;;
29006;SDS011;16104;48.642;9.008;2023-09-12T03:12:32;8.95;;;7.15;;
29006;SDS011;16104;48.642;9.008;2023-09-12T03:17:28;10.88;;;6.80;;
29006;SDS011;16104;48.642;9.008;2023-09-12T03:22:24;11.43;;;9.02;;
29006;SDS011;16104;48.642;9.008;2023-09-12T03:27:19;14.68;;;7.60;;
29006;SDS011;16104;48.642;9.008;2023-09-12T03:32:15;11.23;;;7.75;;
29006;SDS011;16104;48.642;9.008;2023-09-12T03:37:10;12.73;;;8.60;;
29006;SDS011;16104;48.642;9.008;2023-09-12T03:42:06;16.27;;;9.18;;
29006;SDS011;16104;48.642;9.008;2023-09-12T03:47:01;12.25;;;7.93;;
29006;SDS011;16104;48.642;9.008;2023-09-12T03:51:57;9.90;;;7.97;;
29006;SDS011;16104;48.642;9.008;2023-09-12T03:56:52;13.82;;;8.40;;
29006;SDS011;16104;48.642;9.008;2023-09-12T04:01:48;11.18;;;8.18;;
29006;SDS011;16104;48.642;9.008;2023-09-12T04:06:43;12.05;;;8.13;;
29006;SDS011;16104;48.642;9.008;2023-09-12T04:11:39;10.85;;;7.93;;
29006;SDS011;16104;48.642;9.008;2023-09-12T04:16:34;9.82;;;7.60;;
29006;SDS011;16104;48.642;9.008;2023-09-12T04:21:30;13.48;;;8.00;;
29006;SDS011;16104;48.642;9.008;2023-09-12T04:26:26;9.57;;;7.57;;
29006;SDS011;16104;48.642;9.008;2023-09-12T04:31:21;11.57;;;7.60;;
29006;SDS011;16104;48.642;9.008;2023-09-12T04:36:17;8.70;;;6.93;;
29006;SDS011;16104;48.642;9.008;2023-09-12T04:41:13;9.65;;;7.75;;
29006;SDS011;16104;48.642;9.008;2023-09-12T04:46:12;11.73;;;7.57;;
29006;SDS011;16104;48.642;9.008;2023-09-12T04:51:07;14.40;;;7.30;;
29006;SDS011;16104;48.642;9.008;2023-09-12T04:56:03;17.75;;;8.32;;
29006;SDS011;16104;48.642;9.008;2023-09-12T05:01:01;13.27;;;8.90;;
29006;SDS011;16104;48.642;9.008;2023-09-12T05:05:57;13.20;;;8.63;;
29006;SDS011;16104;48.642;9.008;2023-09-12T05:10:53;9.32;;;8.23;;
29006;SDS011;16104;48.642;9.008;2023-09-12T05:15:49;11.38;;;8.88;;
29006;SDS011;16104;48.642;9.008;2023-09-12T05:20:44;14.00;;;8.98;;
29006;SDS011;16104;48.642;9.008;2023-09-12T05:25:40;12.10;;;8.38;;
29006;SDS011;16104;48.642;9.008;2023-09-12T05:30:35;15.23;;;7.93;;
29006;SDS011;16104;48.642;9.008;2023-09-12T05:35:31;10.15;;;8.35;;
29006;SDS011;16104;48.642;9.008;2023-09-12T05:40:26;15.52;;;8.35;;
29006;SDS011;16104;48.642;9.008;2023-09-12T05:45:22;11.88;;;8.90;;
29006;SDS011;16104;48.642;9.008;2023-09-12T05:50:18;12.32;;;8.70;;
29006;SDS011;16104;48.642;9.008;2023-09-12T05:55:14;9.98;;;8.05;;
29006;SDS011;16104;48.642;9.008;2023-09-12T06:00:10;11.40;;;8.73;;
29006;SDS011;16104;48.642;9.008;2023-09-12T06:05:07;9.40;;;7.43;;
29006;SDS011;16104;48.642;9.008;2023-09-12T06:10:02;13.38;;;8.40;;
29006;SDS011;16104;48.642;9.008;2023-09-12T06:15:04;9.18;;;8.27;;
29006;SDS011;16104;48.642;9.008;2023-09-12T06:20:00;10.38;;;7.95;;
29006;SDS011;16104;48.642;9.008;2023-09-12T06:24:58;8.82;;;7.90;;
29006;SDS011;16104;48.642;9.008;2023-09-12T06:29:54;10.68;;;8.15;;
29006;SDS011;16104;48.642;9.008;2023-09-12T06:34:49;12.10;;;8.30;;
29006;SDS011;16104;48.642;9.008;2023-09-12T06:39:45;12.57;;;8.20;;
29006;SDS011;16104;48.642;9.008;2023-09-12T06:44:44;10.68;;;8.50;;
29006;SDS011;16104;48.642;9.008;2023-09-12T06:49:39;17.08;;;8.48;;
29006;SDS011;16104;48.642;9.008;2023-09-12T06:54:35;13.02;;;7.88;;
29006;SDS011;16104;48.642;9.008;2023-09-12T06:59:30;9.80;;;8.07;;
29006;SDS011;16104;48.642;9.008;2023-09-12T07:04:26;11.98;;;8.13;;
29006;SDS011;16104;48.642;9.008;2023-09-12T07:09:22;11.52;;;8.52;;
29006;SDS011;16104;48.642;9.008;2023-09-12T07:14:18;10.20;;;8.05;;
29006;SDS011;16104;48.642;9.008;2023-09-12T07:19:14;10.68;;;8.27;;
29006;SDS011;16104;48.642;9.008;2023-09-12T07:24:09;10.88;;;8.57;;
29006;SDS011;16104;48.642;9.008;2023-09-12T07:29:05;10.75;;;8.93;;
29006;SDS011;16104;48.642;9.008;2023-09-12T07:34:00;10.93;;;8.55;;
29006;SDS011;16104;48.642;9.008;2023-09-12T07:38:56;11.10;;;9.02;;
29006;SDS011;16104;48.642;9.008;2023-09-12T07:43:51;10.82;;;8.75;;
29006;SDS011;16104;48.642;9.008;2023-09-12T07:48:47;10.05;;;8.30;;
29006;SDS011;16104;48.642;9.008;2023-09-12T07:53:43;10.60;;;7.53;;
29006;SDS011;16104;48.642;9.008;2023-09-12T07:58:38;8.43;;;7.63;;
29006;SDS011;16104;48.642;9.008;2023-09-12T08:03:34;8.82;;;7.65;;
29006;SDS011;16104;48.642;9.008;2023-09-12T08:08:31;8.65;;;7.75;;
29006;SDS011;16104;48.642;9.008;2023-09-12T08:13:26;8.75;;;7.82;;
29006;SDS011;16104;48.642;9.008;2023-09-12T08:18:25;11.60;;;7.97;;
29006;SDS011;16104;48.642;9.008;2023-09-12T08:23:23;9.93;;;7.03;;
29006;SDS011;16104;48.642;9.008;2023-09-12T08:28:19;9.85;;;7.85;;
29006;SDS011;16104;48.642;9.008;2023-09-12T08:33:14;10.45;;;7.53;;
29006;SDS011;16104;48.642;9.008;2023-09-12T08:38:10;11.35;;;8.38;;
29006;SDS011;16104;48.642;9.008;2023-09-12T08:43:06;22.75;;;12.93;;
29006;SDS011;16104;48.642;9.008;2023-09-12T08:48:02;11.90;;;8.55;;
29006;SDS011;16104;48.642;9.008;2023-09-12T08:53:00;9.52;;;6.90;;
29006;SDS011;16104;48.642;9.008;2023-09-12T08:57:55;8.38;;;6.82;;
29006;SDS011;16104;48.642;9.008;2023-09-12T09:02:52;10.82;;;7.03;;
29006;SDS011;16104;48.642;9.008;2023-09-12T09:07:47;11.20;;;6.60;;
29006;SDS011;16104;48.642;9.008;2023-09-12T09:12:44;14.25;;;6.28;;
29006;SDS011;16104;48.642;9.008;2023-09-12T09:17:42;6.80;;;6.10;;
29006;SDS011;16104;48.642;9.008;2023-09-12T09:22:38;9.00;;;5.78;;
29006;SDS011;16104;48.642;9.008;2023-09-12T09:27:33;11.50;;;6.45;;
29006;SDS011;16104;48.642;9.008;2023-09-12T09:32:29;11.35;;;6.28;;
29006;SDS011;16104;48.642;9.008;2023-09-12T09:37:25;8.20;;;6.05;;
29006;SDS011;16104;48.642;9.008;2023-09-12T09:42:21;7.88;;;5.55;;
29006;SDS011;16104;48.642;9.008;2023-09-12T09:47:17;6.68;;;5.20;;
29006;SDS011;16104;48.642;9.008;2023-09-12T09:52:14;6.50;;;5.53;;
29006;SDS011;16104;48.642;9.008;2023-09-12T09:57:09;6.03;;;5.15;;
29006;SDS011;16104;48.642;9.008;2023-09-12T10:02:04;7.03;;;4.75;;
29006;SDS011;16104;48.642;9.008;2023-09-12T10:07:07;9.07;;;4.95;;
29006;SDS011;16104;48.642;9.008;2023-09-12T10:12:04;6.03;;;5.13;;
29006;SDS011;16104;48.642;9.008;2023-09-12T10:17:00;7.10;;;5.30;;
29006;SDS011;16104;48.642;9.008;2023-09-12T10:22:11;8.55;;;5.10;;
29006;SDS011;16104;48.642;9.008;2023-09-12T10:27:18;8.07;;;5.13;;
29006;SDS011;16104;48.642;9.008;2023-09-12T10:32:14;5.63;;;4.95;;
29006;SDS011;16104;48.642;9.008;2023-09-12T10:37:12;10.63;;;5.57;;
29006;SDS011;16104;48.642;9.008;2023-09-12T10:42:11;7.25;;;5.30;;
29006;SDS011;16104;48.642;9.008;2023-09-12T10:47:08;6.97;;;5.15;;
29006;SDS011;16104;48.642;9.008;2023-09-12T10:52:04;5.88;;;5.20;;
29006;SDS011;16104;48.642;9.008;2023-09-12T10:57:03;7.45;;;5.07;;
29006;SDS011;16104;48.642;9.008;2023-09-12T11:12:35;5.65;;;5.07;;
29006;SDS011;16104;48.642;9.008;2023-09-12T11:17:36;6.65;;;5.30;;
29006;SDS011;16104;48.642;9.008;2023-09-12T11:22:34;7.75;;;5.35;;
29006;SDS011;16104;48.642;9.008;2023-09-12T11:27:32;5.60;;;5.10;;
29006;SDS011;16104;48.642;9.008;2023-09-12T11:32:39;8.40;;;5.82;;
29006;SDS011;16104;48.642;9.008;2023-09-12T11:37:34;8.63;;;4.75;;
29006;SDS011;16104;48.642;9.008;2023-09-12T11:42:33;5.22;;;4.65;;
29006;SDS011;16104;48.642;9.008;2023-09-12T11:47:34;7.18;;;4.93;;
29006;SDS011;16104;48.642;9.008;2023-09-12T11:52:36;5.50;;;4.50;;
29006;SDS011;16104;48.642;9.008;2023-09-12T11:57:33;6.43;;;4.80;;
29006;SDS011;16104;48.642;9.008;2023-09-12T12:02:29;5.20;;;4.70;;
29006;SDS011;16104;48.642;9.008;2023-09-12T12:07:24;5.32;;;4.30;;
29006;SDS011;16104;48.642;9.008;2023-09-12T12:12:20;4.70;;;4.30;;
29006;SDS011;16104;48.642;9.008;2023-09-12T12:17:15;5.55;;;4.72;;
29006;SDS011;16104;48.642;9.008;2023-09-12T12:22:11;7.22;;;4.97;;
29006;SDS011;16104;48.642;9.008;2023-09-12T12:27:07;5.90;;;5.25;;
29006;SDS011;16104;48.642;9.008;2023-09-12T12:32:03;5.95;;;4.97;;
29006;SDS011;16104;48.642;9.008;2023-09-12T12:37:04;5.93;;;4.93;;
29006;SDS011;16104;48.642;9.008;2023-09-12T12:42:00;9.02;;;5.30;;
29006;SDS011;16104;48.642;9.008;2023-09-12T12:46:55;4.82;;;4.43;;
29006;SDS011;16104;48.642;9.008;2023-09-12T12:51:52;4.77;;;4.37;;
29006;SDS011;16104;48.642;9.008;2023-09-12T12:56:48;7.28;;;4.40;;
29006;SDS011;16104;48.642;9.008;2023-09-12T13:01:44;4.72;;;4.32;;
29006;SDS011;16104;48.642;9.008;2023-09-12T13:06:39;5.90;;;5.28;;
29006;SDS011;16104;48.642;9.008;2023-09-12T13:11:35;5.60;;;5.05;;
29006;SDS011;16104;48.642;9.008;2023-09-12T13:16:31;5.53;;;5.03;;
29006;SDS011;16104;48.642;9.008;2023-09-12T13:21:27;6.05;;;5.28;;
29006;SDS011;16104;48.642;9.008;2023-09-12T13:26:23;5.28;;;4.88;;
29006;SDS011;16104;48.642;9.008;2023-09-12T13:31:18;10.95;;;6.25;;
29006;SDS011;16104;48.642;9.008;2023-09-12T13:36:14;17.45;;;6.70;;
29006;SDS011;16104;48.642;9.008;2023-09-12T13:41:09;8.95;;;6.07;;
29006;SDS011;16104;48.642;9.008;2023-09-12T13:46:05;9.70;;;5.57;;
29006;SDS011;16104;48.642;9.008;2023-09-12T13:51:02;9.38;;;6.25;;
29006;SDS011;16104;48.642;9.008;2023-09-12T13:55:58;10.93;;;6.15;;
29006;SDS011;16104;48.642;9.008;2023-09-12T14:00:55;8.30;;;5.93;;
29006;SDS011;16104;48.642;9.008;2023-09-12T14:05:51;7.40;;;5.80;;
29006;SDS011;16104;48.642;9.008;2023-09-12T14:10:47;6.43;;;5.83;;
29006;SDS011;16104;48.642;9.008;2023-09-12T14:15:43;10.05;;;6.05;;
29006;SDS011;16104;48.642;9.008;2023-09-12T14:20:41;6.38;;;5.32;;
29006;SDS011;16104;48.642;9.008;2023-09-12T14:25:36;8.23;;;5.15;;
29006;SDS011;16104;48.642;9.008;2023-09-12T14:30:32;10.02;;;5.63;;
29006;SDS011;16104;48.642;9.008;2023-09-12T14:35:30;7.80;;;5.47;;
29006;SDS011;16104;48.642;9.008;2023-09-12T14:40:26;8.73;;;5.75;;
29006;SDS011;16104;48.642;9.008;2023-09-12T14:45:22;14.80;;;6.22;;
29006;SDS011;16104;48.642;9.008;2023-09-12T14:55:18;10.35;;;5.65;;
29006;SDS011;16104;48.642;9.008;2023-09-12T15:00:14;10.77;;;5.57;;
29006;SDS011;16104;48.642;9.008;2023-09-12T15:05:09;8.68;;;5.85;;
29006;SDS011;16104;48.642;9.008;2023-09-12T15:10:05;11.75;;;6.32;;
29006;SDS011;16104;48.642;9.008;2023-09-12T15:15:02;10.23;;;5.88;;
29006;SDS011;16104;48.642;9.008;2023-09-12T15:19:58;11.73;;;5.93;;
29006;SDS011;16104;48.642;9.008;2023-09-12T15:24:54;9.57;;;6.50;;
29006;SDS011;16104;48.642;9.008;2023-09-12T15:29:49;6.85;;;5.45;;
29006;SDS011;16104;48.642;9.008;2023-09-12T15:34:45;8.95;;;5.88;;
29006;SDS011;16104;48.642;9.008;2023-09-12T15:39:41;9.25;;;5.80;;
29006;SDS011;16104;48.642;9.008;2023-09-12T15:44:37;7.70;;;5.82;;
29006;SDS011;16104;48.642;9.008;2023-09-12T15:49:32;7.85;;;5.90;;
29006;SDS011;16104;48.642;9.008;2023-09-12T15:54:28;8.25;;;5.60;;
29006;SDS011;16104;48.642;9.008;2023-09-12T15:59:25;6.40;;;5.40;;
29006;SDS011;16104;48.642;9.008;2023-09-12T16:04:20;12.88;;;6.30;;
29006;SDS011;16104;48.642;9.008;2023-09-12T16:09:16;10.23;;;5.53;;
29006;SDS011;16104;48.642;9.008;2023-09-12T16:14:11;6.35;;;5.43;;
29006;SDS011;16104;48.642;9.008;2023-09-12T16:19:07;9.70;;;6.40;;
29006;SDS011;16104;48.642;9.008;2023-09-12T16:24:04;11.27;;;6.00;;
29006;SDS011;16104;48.642;9.008;2023-09-12T16:28:59;11.60;;;5.72;;
29006;SDS011;16104;48.642;9.008;2023-09-12T16:33:55;9.98;;;6.25;;
29006;SDS011;16104;48.642;9.008;2023-09-12T16:38:50;8.82;;;5.55;;
29006;SDS011;16104;48.642;9.008;2023-09-12T16:43:46;12.38;;;5.75;;
29006;SDS011;16104;48.642;9.008;2023-09-12T16:48:41;11.13;;;5.20;;
29006;SDS011;16104;48.642;9.008;2023-09-12T16:53:38;6.63;;;5.22;;
29006;SDS011;16104;48.642;9.008;2023-09-12T16:58:34;5.63;;;4.88;;
29006;SDS011;16104;48.642;9.008;2023-09-12T17:03:31;8.00;;;5.50;;
29006;SDS011;16104;48.642;9.008;2023-09-12T17:08:26;7.50;;;4.80;;
29006;SDS011;16104;48.642;9.008;2023-09-12T17:13:22;5.53;;;4.38;;
29006;SDS011;16104;48.642;9.008;2023-09-12T17:18:18;5.07;;;4.45;;
29006;SDS011;16104;48.642;9.008;2023-09-12T17:23:13;7.15;;;4.63;;
29006;SDS011;16104;48.642;9.008;2023-09-12T17:28:09;5.57;;;4.40;;
29006;SDS011;16104;48.642;9.008;2023-09-12T17:33:04;5.00;;;4.10;;
29006;SDS011;16104;48.642;9.008;2023-09-12T17:38:00;5.88;;;4.22;;
29006;SDS011;16104;48.642;9.008;2023-09-12T17:42:57;10.82;;;4.90;;
29006;SDS011;16104;48.642;9.008;2023-09-12T17:47:53;5.43;;;4.35;;
29006;SDS011;16104;48.642;9.008;2023-09-12T17:52:48;5.97;;;4.13;;
29006;SDS011;16104;48.642;9.008;2023-09-12T17:57:44;5.03;;;4.45;;
29006;SDS011;16104;48.642;9.008;2023-09-12T18:02:39;4.32;;;3.90;;
29006;SDS011;16104;48.642;9.008;2023-09-12T18:07:35;5.78;;;4.30;;
29006;SDS011;16104;48.642;9.008;2023-09-12T18:12:31;5.50;;;3.95;;
29006;SDS011;16104;48.642;9.008;2023-09-12T18:17:26;5.20;;;4.55;;
29006;SDS011;16104;48.642;9.008;2023-09-12T18:22:22;4.88;;;4.28;;
29006;SDS011;16104;48.642;9.008;2023-09-12T18:27:17;5.20;;;4.45;;
29006;SDS011;16104;48.642;9.008;2023-09-12T18:32:13;6.05;;;4.00;;
29006;SDS011;16104;48.642;9.008;2023-09-12T18:37:08;8.20;;;4.38;;
29006;SDS011;16104;48.642;9.008;2023-09-12T18:42:07;8.95;;;4.55;;
29006;SDS011;16104;48.642;9.008;2023-09-12T18:47:03;5.80;;;4.10;;
29006;SDS011;16104;48.642;9.008;2023-09-12T18:51:58;5.07;;;4.57;;
29006;SDS011;16104;48.642;9.008;2023-09-12T18:56:57;8.93;;;4.55;;
29006;SDS011;16104;48.642;9.008;2023-09-12T19:01:54;6.75;;;4.60;;
29006;SDS011;16104;48.642;9.008;2023-09-12T19:06:50;4.95;;;4.40;;
29006;SDS011;16104;48.642;9.008;2023-09-12T19:11:46;6.05;;;4.43;;
29006;SDS011;16104;48.642;9.008;2023-09-12T19:16:42;7.47;;;4.03;;
29006;SDS011;16104;48.642;9.008;2023-09-12T19:21:38;5.03;;;4.47;;
29006;SDS011;16104;48.642;9.008;2023-09-12T19:26:34;6.43;;;4.57;;
29006;SDS011;16104;48.642;9.008;2023-09-12T19:31:31;6.65;;;4.72;;
29006;SDS011;16104;48.642;9.008;2023-09-12T19:36:27;5.20;;;4.45;;
29006;SDS011;16104;48.642;9.008;2023-09-12T19:41:22;5.15;;;3.83;;
29006;SDS011;16104;48.642;9.008;2023-09-12T19:46:18;6.25;;;4.10;;
29006;SDS011;16104;48.642;9.008;2023-09-12T19:51:14;5.13;;;4.13;;
29006;SDS011;16104;48.642;9.008;2023-09-12T19:56:10;5.25;;;3.88;;
29006;SDS011;16104;48.642;9.008;2023-09-12T20:01:05;4.88;;;4.25;;
29006;SDS011;16104;48.642;9.008;2023-09-12T20:06:01;4.45;;;4.05;;
29006;SDS011;16104;48.642;9.008;2023-09-12T20:10:57;7.97;;;4.72;;
29006;SDS011;16104;48.642;9.008;2023-09-12T20:15:54;9.23;;;5.18;;
29006;SDS011;16104;48.642;9.008;2023-09-12T20:20:50;7.15;;;4.63;;
29006;SDS011;16104;48.642;9.008;2023-09-12T20:25:46;6.68;;;4.97;;
29006;SDS011;16104;48.642;9.008;2023-09-12T20:30:45;8.73;;;4.90;;
29006;SDS011;16104;48.642;9.008;2023-09-12T20:35:41;9.30;;;5.57;;
29006;SDS011;16104;48.642;9.008;2023-09-12T20:40:36;7.25;;;5.50;;
29006;SDS011;16104;48.642;9.008;2023-09-12T20:45:32;9.65;;;5.82;;
29006;SDS011;16104;48.642;9.008;2023-09-12T20:50:28;8.30;;;6.05;;
29006;SDS011;16104;48.642;9.008;2023-09-12T20:55:27;6.22;;;5.63;;
29006;SDS011;16104;48.642;9.008;2023-09-12T21:00:24;8.40;;;5.38;;
29006;SDS011;16104;48.642;9.008;2023-09-12T21:05:22;8.73;;;5.80;;
29006;SDS011;16104;48.642;9.008;2023-09-12T21:10:18;6.82;;;5.70;;
29006;SDS011;16104;48.642;9.008;2023-09-12T21:15:14;7.65;;;5.68;;
29006;SDS011;16104;48.642;9.008;2023-09-12T21:20:09;8.90;;;5.90;;
29006;SDS011;16104;48.642;9.008;2023-09-12T21:25:05;6.53;;;5.18;;
29006;SDS011;16104;48.642;9.008;2023-09-12T21:30:01;6.60;;;5.38;;
29006;SDS011;16104;48.642;9.008;2023-09-12T21:35:14;7.70;;;5.65;;
29006;SDS011;16104;48.642;9.008;2023-09-12T21:40:11;6.47;;;5.00;;
29006;SDS011;16104;48.642;9.008;2023-09-12T21:45:08;6.57;;;5.10;;
29006;SDS011;16104;48.642;9.008;2023-09-12T21:50:08;6.22;;;5.63;;
29006;SDS011;16104;48.642;9.008;2023-09-12T21:55:04;8.32;;;6.78;;
29006;SDS011;16104;48.642;9.008;2023-09-12T22:00:00;6.78;;;5.20;;
29006;SDS011;16104;48.642;9.008;2023-09-12T22:05:07;8.80;;;5.60;;
29006;SDS011;16104;48.642;9.008;2023-09-12T22:10:03;10.18;;;5.30;;
29006;SDS011;16104;48.642;9.008;2023-09-12T22:14:58;7.03;;;5.80;;
29006;SDS011;16104;48.642;9.008;2023-09-12T22:19:54;9.95;;;5.65;;
29006;SDS011;16104;48.642;9.008;2023-09-12T22:24:53;9.20;;;5.50;;
29006;SDS011;16104;48.642;9.008;2023-09-12T22:29:51;7.32;;;5.80;;
29006;SDS011;16104;48.642;9.008;2023-09-12T22:34:47;8.90;;;5.30;;
29006;SDS011;16104;48.642;9.008;2023-09-12T22:39:42;5.40;;;4.88;;
29006;SDS011;16104;48.642;9.008;2023-09-12T22:44:38;5.72;;;5.10;;
29006;SDS011;16104;48.642;9.008;2023-09-12T22:49:33;5.38;;;4.78;;
29006;SDS011;16104;48.642;9.008;2023-09-12T22:54:29;6.18;;;4.78;;
29006;SDS011;16104;48.642;9.008;2023-09-12T22:59:26;5.50;;;4.70;;
29006;SDS011;16104;48.642;9.008;2023-09-12T23:04:23;5.95;;;5.28;;
29006;SDS011;16104;48.642;9.008;2023-09-12T23:09:18;8.02;;;5.03;;
29006;SDS011;16104;48.642;9.008;2023-09-12T23:14:14;5.63;;;5.03;;
29006;SDS011;16104;48.642;9.008;2023-09-12T23:19:09;5.40;;;4.63;;
29006;SDS011;16104;48.642;9.008;2023-09-12T23:24:05;6.80;;;4.75;;
29006;SDS011;16104;48.642;9.008;2023-09-12T23:29:00;5.60;;;5.00;;
29006;SDS011;16104;48.642;9.008;2023-09-12T23:33:57;6.03;;;4.57;;
29006;SDS011;16104;48.642;9.008;2023-09-12T23:38:52;5.82;;;4.78;;
29006;SDS011;16104;48.642;9.008;2023-09-12T23:43:48;8.45;;;5.20;;
29006;SDS011;16104;48.642;9.008;2023-09-12T23:48:43;6.75;;;4.78;;
29006;SDS011;16104;48.642;9.008;2023-09-12T23:53:39;7.65;;;5.28;;
29006;SDS011;16104;48.642;9.008;2023-09-12T23:58:34;6.18;;;4.80;;
